Private Wetterstation Sandau
Wetterdaten: Sonntag, 16.12.2012
Datum Zeit Temp. A. Feuchte A. Luftdruck Regen Wind Richtung Richtung Taupunkt Windchill
16.12.2012 00:01 2,8 C 94 % 1005,6 hPa 0,0 l/m 1,8 km/h (1 Bft) S-SO 157 1,9 C 2,8 C
16.12.2012 00:06 2,8 C 94 % 1005,8 hPa 0,0 l/m 3,2 km/h (1 Bft) S 180 1,9 C 2,8 C
16.12.2012 00:11 2,8 C 94 % 1005,7 hPa 0,0 l/m 5,0 km/h (1 Bft) S 180 1,9 C 1,6 C
16.12.2012 00:16 2,8 C 94 % 1005,6 hPa 0,0 l/m 3,6 km/h (1 Bft) S 180 1,9 C 2,8 C
16.12.2012 00:21 2,8 C 94 % 1005,7 hPa 0,0 l/m 5,8 km/h (2 Bft) SO 135 1,9 C 1,3 C
16.12.2012 00:26 2,8 C 94 % 1005,6 hPa 0,0 l/m 3,6 km/h (1 Bft) S 180 1,9 C 2,8 C
16.12.2012 00:31 2,8 C 94 % 1005,5 hPa 0,0 l/m 3,2 km/h (1 Bft) S-SO 157 1,9 C 2,8 C
16.12.2012 00:36 2,8 C 94 % 1005,5 hPa 0,0 l/m 3,2 km/h (1 Bft) S-SO 157 1,9 C 2,8 C
16.12.2012 00:41 2,8 C 94 % 1005,5 hPa 0,0 l/m 0,0 km/h (0 Bft) S-SO 157 1,9 C 2,8 C
16.12.2012 00:46 2,8 C 94 % 1005,6 hPa 0,0 l/m 3,6 km/h (1 Bft) S 180 1,9 C 2,8 C
16.12.2012 00:51 2,8 C 94 % 1005,8 hPa 0,0 l/m 0,0 km/h (0 Bft) S-SO 157 1,9 C 2,8 C
16.12.2012 00:56 2,8 C 94 % 1005,9 hPa 0,0 l/m 5,8 km/h (2 Bft) S-SO 157 1,9 C 1,3 C
16.12.2012 01:01 2,9 C 94 % 1005,6 hPa 0,0 l/m 3,2 km/h (1 Bft) SO 135 2,0 C 2,9 C
16.12.2012 01:06 2,9 C 94 % 1005,7 hPa 0,0 l/m 3,2 km/h (1 Bft) S-SO 157 2,0 C 2,9 C
16.12.2012 01:11 2,9 C 94 % 1005,7 hPa 0,0 l/m 2,2 km/h (1 Bft) S-SO 157 2,0 C 2,9 C
16.12.2012 01:16 2,9 C 94 % 1005,7 hPa 0,0 l/m 1,8 km/h (1 Bft) S 180 2,0 C 2,9 C
16.12.2012 01:21 2,9 C 94 % 1005,6 hPa 0,0 l/m 5,0 km/h (1 Bft) S 180 2,0 C 1,7 C
16.12.2012 01:26 2,9 C 94 % 1005,6 hPa 0,0 l/m 1,1 km/h (1 Bft) SO 135 2,0 C 2,9 C
16.12.2012 01:31 2,9 C 94 % 1005,6 hPa 0,0 l/m 3,2 km/h (1 Bft) SO 135 2,0 C 2,9 C
16.12.2012 01:36 2,9 C 94 % 1005,6 hPa 0,0 l/m 2,5 km/h (1 Bft) S-SO 157 2,0 C 2,9 C
16.12.2012 01:41 2,9 C 94 % 1005,3 hPa 0,0 l/m 0,0 km/h (0 Bft) S-SO 157 2,0 C 2,9 C
16.12.2012 01:46 2,9 C 94 % 1005,5 hPa 0,0 l/m 1,4 km/h (1 Bft) S 180 2,0 C 2,9 C
16.12.2012 01:51 2,9 C 94 % 1005,5 hPa 0,0 l/m 2,2 km/h (1 Bft) S-SO 157 2,0 C 2,9 C
16.12.2012 01:56 2,9 C 94 % 1005,6 hPa 0,0 l/m 4,3 km/h (1 Bft) S-SO 157 2,0 C 2,9 C
16.12.2012 02:01 2,9 C 94 % 1005,6 hPa 0,0 l/m 2,2 km/h (1 Bft) S-SO 157 2,0 C 2,9 C
16.12.2012 02:06 2,9 C 94 % 1005,6 hPa 0,0 l/m 0,0 km/h (0 Bft) S-SW 202 2,0 C 2,9 C
16.12.2012 02:11 2,9 C 94 % 1005,6 hPa 0,0 l/m 6,1 km/h (2 Bft) S 180 2,0 C 1,3 C
16.12.2012 02:16 2,9 C 94 % 1005,6 hPa 0,0 l/m 3,6 km/h (1 Bft) S-SW 202 2,0 C 2,9 C
16.12.2012 02:21 2,9 C 94 % 1005,6 hPa 0,0 l/m 2,5 km/h (1 Bft) S-SW 202 2,0 C 2,9 C
16.12.2012 02:26 2,9 C 94 % 1005,5 hPa 0,0 l/m 5,0 km/h (1 Bft) S-SO 157 2,0 C 1,7 C
16.12.2012 02:31 2,9 C 94 % 1005,3 hPa 0,0 l/m 5,0 km/h (1 Bft) S-SO 157 2,0 C 1,7 C
16.12.2012 02:36 2,9 C 94 % 1005,3 hPa 0,0 l/m 4,7 km/h (1 Bft) SO 135 2,0 C 1,8 C
16.12.2012 02:41 2,9 C 94 % 1005,4 hPa 0,0 l/m 4,3 km/h (1 Bft) SO 135 2,0 C 2,9 C
16.12.2012 02:46 2,9 C 94 % 1005,4 hPa 0,0 l/m 3,2 km/h (1 Bft) S 180 2,0 C 2,9 C
16.12.2012 02:51 2,9 C 94 % 1005,3 hPa 0,0 l/m 5,0 km/h (1 Bft) S-SO 157 2,0 C 1,7 C
16.12.2012 02:56 2,9 C 94 % 1005,3 hPa 0,0 l/m 4,0 km/h (1 Bft) S 180 2,0 C 2,9 C
16.12.2012 03:01 2,9 C 94 % 1005,2 hPa 0,0 l/m 4,0 km/h (1 Bft) S 180 2,0 C 2,9 C
16.12.2012 03:06 2,9 C 94 % 1005,3 hPa 0,0 l/m 2,5 km/h (1 Bft) S 180 2,0 C 2,9 C
16.12.2012 03:11 2,9 C 94 % 1005,4 hPa 0,0 l/m 5,8 km/h (2 Bft) S-SO 157 2,0 C 1,4 C
16.12.2012 03:16 2,9 C 94 % 1005,1 hPa 0,0 l/m 3,6 km/h (1 Bft) S 180 2,0 C 2,9 C
16.12.2012 03:21 2,9 C 94 % 1005,1 hPa 0,0 l/m 2,5 km/h (1 Bft) S-SW 202 2,0 C 2,9 C
16.12.2012 03:26 2,9 C 94 % 1005,2 hPa 0,0 l/m 4,3 km/h (1 Bft) S-SO 157 2,0 C 2,9 C
16.12.2012 03:31 2,9 C 94 % 1005,2 hPa 0,0 l/m 6,1 km/h (2 Bft) SO 135 2,0 C 1,3 C
16.12.2012 03:36 3,0 C 94 % 1005,2 hPa 0,0 l/m 2,5 km/h (1 Bft) S 180 2,1 C 3,0 C
16.12.2012 03:41 3,0 C 94 % 1005,2 hPa 0,0 l/m 4,0 km/h (1 Bft) S 180 2,1 C 3,0 C
16.12.2012 03:46 2,9 C 94 % 1005,3 hPa 0,0 l/m 0,0 km/h (0 Bft) S 180 2,0 C 2,9 C
16.12.2012 03:51 2,9 C 94 % 1005,3 hPa 0,0 l/m 2,2 km/h (1 Bft) S-SO 157 2,0 C 2,9 C
16.12.2012 03:56 2,9 C 94 % 1005,2 hPa 0,0 l/m 3,6 km/h (1 Bft) S 180 2,0 C 2,9 C
16.12.2012 04:01 2,9 C 94 % 1005,2 hPa 0,0 l/m 0,0 km/h (0 Bft) S-SO 157 2,0 C 2,9 C
16.12.2012 04:06 2,9 C 94 % 1005,2 hPa 0,0 l/m 8,3 km/h (2 Bft) S-SO 157 2,0 C 0,6 C
16.12.2012 04:11 2,9 C 94 % 1005,1 hPa 0,0 l/m 4,3 km/h (1 Bft) S 180 2,0 C 2,9 C
16.12.2012 04:16 2,9 C 94 % 1005,3 hPa 0,0 l/m 4,3 km/h (1 Bft) S 180 2,0 C 2,9 C
16.12.2012 04:21 2,9 C 94 % 1005,4 hPa 0,0 l/m 2,5 km/h (1 Bft) S 180 2,0 C 2,9 C
16.12.2012 04:26 2,9 C 94 % 1005,2 hPa 0,0 l/m 0,0 km/h (0 Bft) S 180 2,0 C 2,9 C
16.12.2012 04:31 2,9 C 94 % 1005,0 hPa 0,0 l/m 3,2 km/h (1 Bft) S-SO 157 2,0 C 2,9 C
16.12.2012 04:36 2,9 C 94 % 1005,1 hPa 0,0 l/m 1,1 km/h (1 Bft) S-SO 157 2,0 C 2,9 C
16.12.2012 04:41 2,9 C 94 % 1005,1 hPa 0,0 l/m 2,9 km/h (1 Bft) S-SW 202 2,0 C 2,9 C
16.12.2012 04:46 2,9 C 94 % 1005,0 hPa 0,0 l/m 0,0 km/h (0 Bft) S 180 2,0 C 2,9 C
16.12.2012 04:51 2,9 C 94 % 1005,1 hPa 0,0 l/m 2,5 km/h (1 Bft) S-SW 202 2,0 C 2,9 C
16.12.2012 04:56 2,8 C 94 % 1005,1 hPa 0,0 l/m 0,0 km/h (0 Bft) S 180 1,9 C 2,8 C
16.12.2012 05:01 2,8 C 94 % 1005,0 hPa 0,0 l/m 4,0 km/h (1 Bft) S-SO 157 1,9 C 2,8 C
16.12.2012 05:06 2,8 C 94 % 1005,0 hPa 0,0 l/m 3,2 km/h (1 Bft) S-SW 202 1,9 C 2,8 C
16.12.2012 05:11 2,8 C 94 % 1004,9 hPa 0,0 l/m 1,8 km/h (1 Bft) SO 135 1,9 C 2,8 C
16.12.2012 05:16 2,8 C 94 % 1005,0 hPa 0,0 l/m 3,6 km/h (1 Bft) S-SO 157 1,9 C 2,8 C
16.12.2012 05:21 2,8 C 94 % 1005,1 hPa 0,0 l/m 0,0 km/h (0 Bft) S-SO 157 1,9 C 2,8 C
16.12.2012 05:26 2,8 C 94 % 1005,0 hPa 0,0 l/m 0,0 km/h (0 Bft) SO 135 1,9 C 2,8 C
16.12.2012 05:31 2,8 C 94 % 1005,0 hPa 0,0 l/m 1,8 km/h (1 Bft) S-SO 157 1,9 C 2,8 C
16.12.2012 05:36 2,8 C 94 % 1005,0 hPa 0,0 l/m 3,6 km/h (1 Bft) SO 135 1,9 C 2,8 C
16.12.2012 05:41 2,8 C 94 % 1004,9 hPa 0,0 l/m 2,9 km/h (1 Bft) S-SO 157 1,9 C 2,8 C
16.12.2012 05:46 2,8 C 94 % 1004,7 hPa 0,0 l/m 2,9 km/h (1 Bft) S-SO 157 1,9 C 2,8 C
16.12.2012 05:51 2,9 C 94 % 1004,6 hPa 0,0 l/m 5,8 km/h (2 Bft) SO 135 2,0 C 1,4 C
16.12.2012 05:56 2,9 C 94 % 1004,6 hPa 0,0 l/m 3,6 km/h (1 Bft) S-SO 157 2,0 C 2,9 C
16.12.2012 06:01 2,9 C 94 % 1004,8 hPa 0,0 l/m 3,2 km/h (1 Bft) S 180 2,0 C 2,9 C
16.12.2012 06:06 2,9 C 94 % 1004,8 hPa 0,0 l/m 0,0 km/h (0 Bft) S 180 2,0 C 2,9 C
16.12.2012 06:11 2,9 C 94 % 1004,7 hPa 0,0 l/m 4,0 km/h (1 Bft) S 180 2,0 C 2,9 C
16.12.2012 06:16 2,9 C 94 % 1004,9 hPa 0,0 l/m 3,6 km/h (1 Bft) S-SO 157 2,0 C 2,9 C
16.12.2012 06:21 2,8 C 94 % 1004,9 hPa 0,0 l/m 0,0 km/h (0 Bft) S-SW 202 1,9 C 2,8 C
16.12.2012 06:26 2,8 C 94 % 1004,8 hPa 0,0 l/m 6,5 km/h (2 Bft) S 180 1,9 C 1,0 C
16.12.2012 06:31 2,8 C 94 % 1005,1 hPa 0,0 l/m 2,2 km/h (1 Bft) S 180 1,9 C 2,8 C
16.12.2012 06:36 2,8 C 94 % 1004,8 hPa 0,0 l/m 3,2 km/h (1 Bft) S-SO 157 1,9 C 2,8 C
16.12.2012 06:41 2,8 C 94 % 1004,8 hPa 0,0 l/m 1,8 km/h (1 Bft) S-SO 157 1,9 C 2,8 C
16.12.2012 06:46 2,8 C 94 % 1004,9 hPa 0,0 l/m 5,8 km/h (2 Bft) S-SO 157 1,9 C 1,3 C
16.12.2012 06:51 2,8 C 94 % 1004,8 hPa 0,0 l/m 0,0 km/h (0 Bft) S 180 1,9 C 2,8 C
16.12.2012 06:56 2,8 C 94 % 1004,9 hPa 0,0 l/m 1,1 km/h (1 Bft) S-SO 157 1,9 C 2,8 C
16.12.2012 07:01 2,8 C 94 % 1004,8 hPa 0,0 l/m 2,2 km/h (1 Bft) SW 225 1,9 C 2,8 C
16.12.2012 07:06 2,7 C 94 % 1004,9 hPa 0,0 l/m 0,0 km/h (0 Bft) S-SW 202 1,8 C 2,7 C
16.12.2012 07:11 2,7 C 94 % 1004,8 hPa 0,0 l/m 0,0 km/h (0 Bft) S-SW 202 1,8 C 2,7 C
16.12.2012 07:16 2,7 C 94 % 1004,7 hPa 0,0 l/m 0,0 km/h (0 Bft) S-SW 202 1,8 C 2,7 C
16.12.2012 07:21 2,7 C 94 % 1004,8 hPa 0,0 l/m 2,5 km/h (1 Bft) S 180 1,8 C 2,7 C
16.12.2012 07:26 2,7 C 94 % 1004,6 hPa 0,0 l/m 1,8 km/h (1 Bft) S 180 1,8 C 2,7 C
16.12.2012 07:31 2,7 C 94 % 1004,8 hPa 0,0 l/m 5,4 km/h (1 Bft) S-SO 157 1,8 C 1,3 C
16.12.2012 07:36 2,6 C 94 % 1004,8 hPa 0,0 l/m 4,3 km/h (1 Bft) S 180 1,7 C 2,6 C
16.12.2012 07:41 2,7 C 94 % 1004,8 hPa 0,0 l/m 1,4 km/h (1 Bft) S-SO 157 1,8 C 2,7 C
16.12.2012 07:46 2,6 C 94 % 1005,0 hPa 0,0 l/m 2,2 km/h (1 Bft) S-SO 157 1,7 C 2,6 C
16.12.2012 07:51 2,6 C 94 % 1004,9 hPa 0,0 l/m 0,0 km/h (0 Bft) S 180 1,7 C 2,6 C
16.12.2012 07:56 2,7 C 94 % 1005,0 hPa 0,0 l/m 1,4 km/h (1 Bft) S-SW 202 1,8 C 2,7 C
16.12.2012 08:01 2,7 C 94 % 1004,9 hPa 0,0 l/m 5,8 km/h (2 Bft) S-SW 202 1,8 C 1,2 C
16.12.2012 08:06 2,7 C 94 % 1005,1 hPa 0,0 l/m 2,5 km/h (1 Bft) S-SO 157 1,8 C 2,7 C
16.12.2012 08:11 2,7 C 94 % 1004,9 hPa 0,0 l/m 4,0 km/h (1 Bft) S-SW 202 1,8 C 2,7 C
16.12.2012 08:16 2,8 C 94 % 1004,9 hPa 0,0 l/m 2,2 km/h (1 Bft) S-SW 202 1,9 C 2,8 C
16.12.2012 08:21 2,7 C 94 % 1005,0 hPa 0,0 l/m 5,4 km/h (1 Bft) SW 225 1,8 C 1,3 C
16.12.2012 08:26 2,7 C 94 % 1005,1 hPa 0,0 l/m 10,8 km/h (2 Bft) S-SW 202 1,8 C -0,3 C
16.12.2012 08:31 2,8 C 94 % 1005,2 hPa 0,0 l/m 6,5 km/h (2 Bft) SW 225 1,9 C 1,0 C
16.12.2012 08:36 2,8 C 94 % 1005,1 hPa 0,0 l/m 4,7 km/h (1 Bft) S-SW 202 1,9 C 1,7 C
16.12.2012 08:41 2,8 C 94 % 1005,0 hPa 0,0 l/m 3,6 km/h (1 Bft) S 180 1,9 C 2,8 C
16.12.2012 08:46 2,8 C 94 % 1005,2 hPa 0,0 l/m 2,2 km/h (1 Bft) S 180 1,9 C 2,8 C
16.12.2012 08:51 2,8 C 94 % 1005,1 hPa 0,0 l/m 0,0 km/h (0 Bft) S 180 1,9 C 2,8 C
16.12.2012 08:56 2,8 C 94 % 1005,1 hPa 0,0 l/m 5,0 km/h (1 Bft) S-SO 157 1,9 C 1,6 C
16.12.2012 09:01 2,7 C 94 % 1004,9 hPa 0,0 l/m 1,8 km/h (1 Bft) S 180 1,8 C 2,7 C
16.12.2012 09:06 2,7 C 94 % 1005,1 hPa 0,0 l/m 5,8 km/h (2 Bft) S-SW 202 1,8 C 1,2 C
16.12.2012 09:11 2,8 C 94 % 1005,1 hPa 0,0 l/m 0,0 km/h (0 Bft) S-SO 157 1,9 C 2,8 C
16.12.2012 09:16 2,8 C 94 % 1005,2 hPa 0,0 l/m 7,6 km/h (2 Bft) SW 225 1,9 C 0,7 C
16.12.2012 09:21 2,9 C 94 % 1005,2 hPa 0,0 l/m 2,5 km/h (1 Bft) SW 225 2,0 C 2,9 C
16.12.2012 09:26 2,9 C 94 % 1005,3 hPa 0,0 l/m 3,6 km/h (1 Bft) SW 225 2,0 C 2,9 C
16.12.2012 09:31 2,9 C 94 % 1005,2 hPa 0,0 l/m 10,8 km/h (2 Bft) S-SW 202 2,0 C -0,0 C
16.12.2012 09:36 2,9 C 94 % 1005,3 hPa 0,0 l/m 1,4 km/h (1 Bft) SW 225 2,0 C 2,9 C
16.12.2012 09:41 3,0 C 94 % 1005,4 hPa 0,0 l/m 5,0 km/h (1 Bft) S 180 2,1 C 1,8 C
16.12.2012 09:46 3,0 C 94 % 1005,3 hPa 0,0 l/m 8,3 km/h (2 Bft) S-SW 202 2,1 C 0,7 C
16.12.2012 09:51 3,1 C 94 % 1005,5 hPa 0,0 l/m 10,8 km/h (2 Bft) S-SW 202 2,2 C 0,2 C
16.12.2012 09:56 3,1 C 94 % 1005,5 hPa 0,0 l/m 6,8 km/h (2 Bft) S 180 2,2 C 1,3 C
16.12.2012 10:01 3,1 C 94 % 1005,5 hPa 0,0 l/m 9,7 km/h (2 Bft) S-SO 157 2,2 C 0,5 C
16.12.2012 10:06 3,1 C 94 % 1005,4 hPa 0,0 l/m 9,4 km/h (2 Bft) S 180 2,2 C 0,5 C
16.12.2012 10:11 3,1 C 94 % 1005,4 hPa 0,0 l/m 6,8 km/h (2 Bft) S-SW 202 2,2 C 1,3 C
16.12.2012 10:16 3,1 C 94 % 1005,4 hPa 0,0 l/m 2,9 km/h (1 Bft) S-SW 202 2,2 C 3,1 C
16.12.2012 10:21 3,1 C 94 % 1005,5 hPa 0,0 l/m 10,8 km/h (2 Bft) S-SW 202 2,2 C 0,2 C
16.12.2012 10:26 3,1 C 94 % 1005,5 hPa 0,0 l/m 8,6 km/h (2 Bft) S-SW 202 2,2 C 0,7 C
16.12.2012 10:31 3,1 C 94 % 1005,4 hPa 0,0 l/m 3,6 km/h (1 Bft) S-SO 157 2,2 C 3,1 C
16.12.2012 10:36 3,1 C 94 % 1005,7 hPa 0,0 l/m 8,6 km/h (2 Bft) S 180 2,2 C 0,7 C
16.12.2012 10:41 3,1 C 94 % 1005,6 hPa 0,0 l/m 10,8 km/h (2 Bft) S-SW 202 2,2 C 0,2 C
16.12.2012 10:46 3,2 C 94 % 1005,7 hPa 0,0 l/m 5,8 km/h (2 Bft) S-SW 202 2,3 C 1,7 C
16.12.2012 10:51 3,2 C 94 % 1005,5 hPa 0,0 l/m 6,5 km/h (2 Bft) S-SW 202 2,3 C 1,5 C
16.12.2012 10:56 3,2 C 94 % 1005,7 hPa 0,0 l/m 5,0 km/h (1 Bft) S 180 2,3 C 2,0 C
16.12.2012 11:01 3,2 C 94 % 1005,6 hPa 0,0 l/m 10,8 km/h (2 Bft) S-SW 202 2,3 C 0,3 C
16.12.2012 11:06 3,3 C 94 % 1005,6 hPa 0,0 l/m 7,6 km/h (2 Bft) SW 225 2,4 C 1,3 C
16.12.2012 11:11 3,3 C 94 % 1005,7 hPa 0,0 l/m 6,5 km/h (2 Bft) S-SW 202 2,4 C 1,6 C
16.12.2012 11:16 3,4 C 94 % 1005,6 hPa 0,0 l/m 7,2 km/h (2 Bft) S-SW 202 2,5 C 1,5 C
16.12.2012 11:21 3,4 C 94 % 1005,5 hPa 0,5 l/m 4,7 km/h (1 Bft) S-SO 157 2,5 C 2,4 C
16.12.2012 11:26 3,4 C 94 % 1005,7 hPa 0,0 l/m 5,0 km/h (1 Bft) SO 135 2,5 C 2,3 C
16.12.2012 11:31 3,4 C 94 % 1005,7 hPa 0,0 l/m 4,0 km/h (1 Bft) S-SW 202 2,5 C 3,4 C
16.12.2012 11:36 3,5 C 94 % 1005,8 hPa 0,0 l/m 4,7 km/h (1 Bft) S-SO 157 2,6 C 2,5 C
16.12.2012 11:41 3,4 C 94 % 1005,7 hPa 0,0 l/m 2,5 km/h (1 Bft) S-SW 202 2,5 C 3,4 C
16.12.2012 11:46 3,3 C 94 % 1005,7 hPa 0,0 l/m 5,0 km/h (1 Bft) SW 225 2,4 C 2,2 C
16.12.2012 11:51 3,3 C 94 % 1005,7 hPa 0,0 l/m 3,2 km/h (1 Bft) S-SW 202 2,4 C 3,3 C
16.12.2012 11:56 3,3 C 94 % 1005,6 hPa 0,0 l/m 5,4 km/h (1 Bft) S-SO 157 2,4 C 2,0 C
16.12.2012 12:01 3,3 C 94 % 1005,6 hPa 0,0 l/m 4,0 km/h (1 Bft) SW 225 2,4 C 3,3 C
16.12.2012 12:06 3,3 C 94 % 1005,8 hPa 0,0 l/m 3,6 km/h (1 Bft) S 180 2,4 C 3,3 C
16.12.2012 12:11 3,3 C 94 % 1005,7 hPa 0,0 l/m 7,6 km/h (2 Bft) S 180 2,4 C 1,3 C
16.12.2012 12:16 3,3 C 94 % 1005,7 hPa 0,0 l/m 4,0 km/h (1 Bft) S-SW 202 2,4 C 3,3 C
16.12.2012 12:21 3,3 C 94 % 1005,6 hPa 0,0 l/m 8,3 km/h (2 Bft) S 180 2,4 C 1,1 C
16.12.2012 12:26 3,3 C 94 % 1005,6 hPa 0,0 l/m 4,0 km/h (1 Bft) SW 225 2,4 C 3,3 C
16.12.2012 12:31 3,3 C 94 % 1005,6 hPa 0,0 l/m 2,5 km/h (1 Bft) S-SW 202 2,4 C 3,3 C
16.12.2012 12:36 3,3 C 94 % 1005,5 hPa 0,0 l/m 0,0 km/h (0 Bft) S 180 2,4 C 3,3 C
16.12.2012 12:41 3,4 C 94 % 1005,5 hPa 0,0 l/m 0,0 km/h (0 Bft) S-SW 202 2,5 C 3,4 C
16.12.2012 12:46 3,5 C 94 % 1005,5 hPa 0,0 l/m 6,1 km/h (2 Bft) S-SO 157 2,6 C 2,0 C
16.12.2012 12:51 3,5 C 94 % 1005,4 hPa 0,0 l/m 7,6 km/h (2 Bft) S 180 2,6 C 1,5 C
16.12.2012 12:56 3,6 C 94 % 1005,5 hPa 0,0 l/m 9,7 km/h (2 Bft) S-SW 202 2,7 C 1,1 C
16.12.2012 13:01 3,6 C 94 % 1005,6 hPa 0,0 l/m 8,3 km/h (2 Bft) S 180 2,7 C 1,4 C
16.12.2012 13:06 3,6 C 94 % 1005,5 hPa 0,0 l/m 6,8 km/h (2 Bft) S 180 2,7 C 1,8 C
16.12.2012 13:11 3,7 C 94 % 1005,5 hPa 0,0 l/m 9,7 km/h (2 Bft) S 180 2,8 C 1,2 C
16.12.2012 13:16 3,8 C 94 % 1005,5 hPa 0,0 l/m 6,5 km/h (2 Bft) S-SW 202 2,9 C 2,2 C
16.12.2012 13:21 3,8 C 94 % 1005,5 hPa 0,0 l/m 4,0 km/h (1 Bft) S-SW 202 2,9 C 3,8 C
16.12.2012 13:26 3,8 C 94 % 1005,5 hPa 0,0 l/m 4,0 km/h (1 Bft) S-SO 157 2,9 C 3,8 C
16.12.2012 13:31 3,8 C 94 % 1005,3 hPa 0,0 l/m 5,0 km/h (1 Bft) S-SW 202 2,9 C 2,7 C
16.12.2012 13:36 3,8 C 94 % 1005,4 hPa 0,0 l/m 5,8 km/h (2 Bft) SW 225 2,9 C 2,4 C
16.12.2012 13:41 3,8 C 94 % 1005,4 hPa 0,0 l/m 6,1 km/h (2 Bft) S-SW 202 2,9 C 2,3 C
16.12.2012 13:46 3,8 C 94 % 1005,4 hPa 0,0 l/m 7,6 km/h (2 Bft) S-SW 202 2,9 C 1,8 C
16.12.2012 13:51 3,9 C 94 % 1005,5 hPa 0,0 l/m 4,3 km/h (1 Bft) S 180 3,0 C 3,9 C
16.12.2012 13:56 3,9 C 94 % 1005,5 hPa 0,0 l/m 4,0 km/h (1 Bft) S-SW 202 3,0 C 3,9 C
16.12.2012 14:01 3,9 C 94 % 1005,5 hPa 0,0 l/m 10,1 km/h (2 Bft) W-SW 247 3,0 C 1,3 C
16.12.2012 14:06 4,0 C 94 % 1005,5 hPa 0,0 l/m 7,2 km/h (2 Bft) S 180 3,1 C 2,2 C
16.12.2012 14:11 4,0 C 94 % 1005,5 hPa 0,0 l/m 9,4 km/h (2 Bft) SW 225 3,1 C 1,6 C
16.12.2012 14:16 4,1 C 94 % 1005,4 hPa 0,0 l/m 5,8 km/h (2 Bft) S-SW 202 3,2 C 2,8 C
16.12.2012 14:21 4,1 C 94 % 1005,6 hPa 0,0 l/m 2,5 km/h (1 Bft) S 180 3,2 C 4,1 C
16.12.2012 14:26 4,0 C 94 % 1005,6 hPa 0,0 l/m 3,6 km/h (1 Bft) SW 225 3,1 C 4,0 C
16.12.2012 14:31 4,1 C 94 % 1005,3 hPa 0,0 l/m 9,0 km/h (2 Bft) SW 225 3,2 C 1,8 C
16.12.2012 14:36 4,1 C 94 % 1005,6 hPa 0,0 l/m 4,0 km/h (1 Bft) S 180 3,2 C 4,1 C
16.12.2012 14:41 4,0 C 94 % 1005,5 hPa 0,0 l/m 4,3 km/h (1 Bft) S 180 3,1 C 4,0 C
16.12.2012 14:46 3,9 C 94 % 1005,5 hPa 0,0 l/m 6,8 km/h (2 Bft) SW 225 3,0 C 2,2 C
16.12.2012 14:51 3,9 C 94 % 1005,4 hPa 0,0 l/m 2,9 km/h (1 Bft) SW 225 3,0 C 3,9 C
16.12.2012 14:56 3,9 C 94 % 1005,5 hPa 0,0 l/m 6,1 km/h (2 Bft) S 180 3,0 C 2,4 C
16.12.2012 15:01 3,9 C 94 % 1005,5 hPa 0,0 l/m 7,9 km/h (2 Bft) S-SW 202 3,0 C 1,9 C
16.12.2012 15:06 3,9 C 94 % 1005,5 hPa 0,0 l/m 2,9 km/h (1 Bft) S-SO 157 3,0 C 3,9 C
16.12.2012 15:11 3,9 C 94 % 1005,5 hPa 0,0 l/m 4,0 km/h (1 Bft) S-SO 157 3,0 C 3,9 C
16.12.2012 15:16 3,9 C 94 % 1005,5 hPa 0,0 l/m 5,8 km/h (2 Bft) SW 225 3,0 C 2,5 C
16.12.2012 15:21 3,9 C 94 % 1005,6 hPa 0,0 l/m 4,0 km/h (1 Bft) S 180 3,0 C 3,9 C
16.12.2012 15:26 3,9 C 93 % 1005,6 hPa 0,0 l/m 6,5 km/h (2 Bft) SW 225 2,9 C 2,3 C
16.12.2012 15:31 3,8 C 93 % 1005,6 hPa 0,0 l/m 5,0 km/h (1 Bft) S-SW 202 2,8 C 2,7 C
16.12.2012 15:36 3,8 C 93 % 1005,5 hPa 0,0 l/m 4,0 km/h (1 Bft) S-SW 202 2,8 C 3,8 C
16.12.2012 15:41 3,8 C 93 % 1005,6 hPa 0,0 l/m 2,5 km/h (1 Bft) S 180 2,8 C 3,8 C
16.12.2012 15:46 3,8 C 93 % 1005,6 hPa 0,0 l/m 3,6 km/h (1 Bft) SO 135 2,8 C 3,8 C
16.12.2012 15:51 3,6 C 93 % 1005,7 hPa 0,0 l/m 8,3 km/h (2 Bft) S 180 2,6 C 1,4 C
16.12.2012 15:56 3,6 C 93 % 1005,5 hPa 0,0 l/m 5,8 km/h (2 Bft) S-SW 202 2,6 C 2,2 C
16.12.2012 16:01 3,6 C 93 % 1005,6 hPa 0,0 l/m 9,7 km/h (2 Bft) S-SW 202 2,6 C 1,1 C
16.12.2012 16:06 3,6 C 93 % 1005,6 hPa 0,0 l/m 7,2 km/h (2 Bft) S 180 2,6 C 1,7 C
16.12.2012 16:11 3,6 C 93 % 1005,7 hPa 0,0 l/m 6,5 km/h (2 Bft) S-SW 202 2,6 C 1,9 C
16.12.2012 16:16 3,6 C 93 % 1005,6 hPa 0,0 l/m 2,9 km/h (1 Bft) S-SW 202 2,6 C 3,6 C
16.12.2012 16:21 3,5 C 93 % 1005,7 hPa 0,0 l/m 8,6 km/h (2 Bft) W-SW 247 2,5 C 1,2 C
16.12.2012 16:26 3,5 C 93 % 1005,7 hPa 0,0 l/m 4,0 km/h (1 Bft) S-SW 202 2,5 C 3,5 C
16.12.2012 16:31 3,5 C 93 % 1005,6 hPa 0,0 l/m 7,6 km/h (2 Bft) SW 225 2,5 C 1,5 C
16.12.2012 16:36 3,5 C 93 % 1005,7 hPa 0,0 l/m 5,0 km/h (1 Bft) S-SW 202 2,5 C 2,4 C
16.12.2012 16:41 3,5 C 93 % 1005,7 hPa 0,0 l/m 8,3 km/h (2 Bft) SW 225 2,5 C 1,3 C
16.12.2012 16:46 3,4 C 94 % 1005,5 hPa 0,0 l/m 2,9 km/h (1 Bft) S 180 2,5 C 3,4 C
16.12.2012 16:51 3,4 C 93 % 1005,6 hPa 0,0 l/m 3,2 km/h (1 Bft) S-SO 157 2,4 C 3,4 C
16.12.2012 16:56 3,4 C 94 % 1005,6 hPa 0,0 l/m 5,0 km/h (1 Bft) S-SW 202 2,5 C 2,3 C
16.12.2012 17:01 3,4 C 94 % 1005,8 hPa 0,0 l/m 2,5 km/h (1 Bft) S-SO 157 2,5 C 3,4 C
16.12.2012 17:06 3,4 C 94 % 1005,8 hPa 0,0 l/m 8,3 km/h (2 Bft) S-SW 202 2,5 C 1,2 C
16.12.2012 17:11 3,4 C 94 % 1005,7 hPa 0,0 l/m 5,4 km/h (1 Bft) S 180 2,5 C 2,1 C
16.12.2012 17:16 3,4 C 94 % 1005,8 hPa 0,0 l/m 3,2 km/h (1 Bft) S-SW 202 2,5 C 3,4 C
16.12.2012 17:21 3,3 C 94 % 1005,7 hPa 0,0 l/m 6,8 km/h (2 Bft) S-SW 202 2,4 C 1,5 C
16.12.2012 17:26 3,4 C 94 % 1005,7 hPa 0,0 l/m 5,4 km/h (1 Bft) S-SO 157 2,5 C 2,1 C
16.12.2012 17:31 3,4 C 94 % 1005,6 hPa 0,0 l/m 6,8 km/h (2 Bft) S-SW 202 2,5 C 1,6 C
16.12.2012 17:36 3,4 C 94 % 1005,7 hPa 0,0 l/m 8,3 km/h (2 Bft) SW 225 2,5 C 1,2 C
16.12.2012 17:41 3,4 C 94 % 1005,7 hPa 0,0 l/m 4,0 km/h (1 Bft) S-SW 202 2,5 C 3,4 C
16.12.2012 17:46 3,4 C 94 % 1005,7 hPa 0,0 l/m 2,9 km/h (1 Bft) S 180 2,5 C 3,4 C
16.12.2012 17:51 3,4 C 94 % 1005,8 hPa 0,0 l/m 5,4 km/h (1 Bft) S-SO 157 2,5 C 2,1 C
16.12.2012 17:56 3,4 C 94 % 1005,7 hPa 0,0 l/m 3,6 km/h (1 Bft) S 180 2,5 C 3,4 C
16.12.2012 18:01 3,4 C 94 % 1005,9 hPa 0,0 l/m 6,5 km/h (2 Bft) S-SW 202 2,5 C 1,7 C
16.12.2012 18:06 3,4 C 94 % 1005,9 hPa 0,0 l/m 3,2 km/h (1 Bft) S-SO 157 2,5 C 3,4 C
16.12.2012 18:11 3,4 C 94 % 1005,9 hPa 0,0 l/m 2,9 km/h (1 Bft) S-SW 202 2,5 C 3,4 C
16.12.2012 18:16 3,4 C 94 % 1005,9 hPa 0,0 l/m 6,1 km/h (2 Bft) S-SW 202 2,5 C 1,8 C
16.12.2012 18:21 3,4 C 94 % 1005,9 hPa 0,0 l/m 4,3 km/h (1 Bft) S 180 2,5 C 3,4 C
16.12.2012 18:26 3,4 C 94 % 1005,8 hPa 0,0 l/m 5,4 km/h (1 Bft) S-SO 157 2,5 C 2,1 C
16.12.2012 18:31 3,4 C 94 % 1005,9 hPa 0,0 l/m 4,7 km/h (1 Bft) SW 225 2,5 C 2,4 C
16.12.2012 18:36 3,4 C 94 % 1006,0 hPa 0,0 l/m 2,9 km/h (1 Bft) S-SW 202 2,5 C 3,4 C
16.12.2012 18:41 3,5 C 94 % 1005,9 hPa 0,0 l/m 2,9 km/h (1 Bft) S-SW 202 2,6 C 3,5 C
16.12.2012 18:46 3,5 C 94 % 1006,0 hPa 0,0 l/m 6,1 km/h (2 Bft) S 180 2,6 C 2,0 C
16.12.2012 18:51 3,5 C 94 % 1006,0 hPa 0,0 l/m 0,0 km/h (0 Bft) S 180 2,6 C 3,5 C
16.12.2012 18:56 3,5 C 94 % 1006,1 hPa 0,0 l/m 3,2 km/h (1 Bft) S-SW 202 2,6 C 3,5 C
16.12.2012 19:01 3,5 C 94 % 1006,0 hPa 0,0 l/m 2,2 km/h (1 Bft) SW 225 2,6 C 3,5 C
16.12.2012 19:06 3,5 C 94 % 1005,9 hPa 0,0 l/m 1,8 km/h (1 Bft) S-SO 157 2,6 C 3,5 C
16.12.2012 19:11 3,5 C 94 % 1005,9 hPa 0,0 l/m 3,2 km/h (1 Bft) S 180 2,6 C 3,5 C
16.12.2012 19:16 3,5 C 94 % 1006,0 hPa 0,0 l/m 6,1 km/h (2 Bft) SW 225 2,6 C 2,0 C
16.12.2012 19:21 3,5 C 94 % 1006,0 hPa 0,0 l/m 4,7 km/h (1 Bft) SW 225 2,6 C 2,5 C
16.12.2012 19:26 3,5 C 94 % 1005,9 hPa 0,0 l/m 3,6 km/h (1 Bft) S-SW 202 2,6 C 3,5 C
16.12.2012 19:31 3,5 C 94 % 1006,0 hPa 0,0 l/m 2,9 km/h (1 Bft) SW 225 2,6 C 3,5 C
16.12.2012 19:36 3,5 C 94 % 1006,0 hPa 0,0 l/m 4,7 km/h (1 Bft) SW 225 2,6 C 2,5 C
16.12.2012 19:41 3,4 C 94 % 1006,0 hPa 0,0 l/m 5,8 km/h (2 Bft) S-SW 202 2,5 C 2,0 C
16.12.2012 19:46 3,5 C 94 % 1006,0 hPa 0,0 l/m 2,9 km/h (1 Bft) SW 225 2,6 C 3,5 C
16.12.2012 19:51 3,5 C 94 % 1006,0 hPa 0,0 l/m 6,8 km/h (2 Bft) S-SW 202 2,6 C 1,7 C
16.12.2012 19:56 3,5 C 94 % 1006,0 hPa 0,0 l/m 4,7 km/h (1 Bft) SW 225 2,6 C 2,5 C
16.12.2012 20:01 3,5 C 94 % 1006,2 hPa 0,0 l/m 2,5 km/h (1 Bft) S-SW 202 2,6 C 3,5 C
16.12.2012 20:06 3,4 C 94 % 1006,0 hPa 0,0 l/m 7,6 km/h (2 Bft) SW 225 2,5 C 1,4 C
16.12.2012 20:11 3,5 C 94 % 1005,9 hPa 0,0 l/m 2,2 km/h (1 Bft) S 180 2,6 C 3,5 C
16.12.2012 20:16 3,5 C 94 % 1006,0 hPa 0,0 l/m 0,0 km/h (0 Bft) S-SO 157 2,6 C 3,5 C
16.12.2012 20:21 3,4 C 94 % 1005,9 hPa 0,0 l/m 2,2 km/h (1 Bft) S-SO 157 2,5 C 3,4 C
16.12.2012 20:26 3,4 C 94 % 1005,9 hPa 0,0 l/m 3,2 km/h (1 Bft) S 180 2,5 C 3,4 C
16.12.2012 20:31 3,4 C 94 % 1005,9 hPa 0,0 l/m 3,6 km/h (1 Bft) S-SO 157 2,5 C 3,4 C
16.12.2012 20:36 3,4 C 94 % 1005,9 hPa 0,0 l/m 7,9 km/h (2 Bft) S 180 2,5 C 1,3 C
16.12.2012 20:41 3,4 C 94 % 1005,9 hPa 0,5 l/m 2,5 km/h (1 Bft) S 180 2,5 C 3,4 C
16.12.2012 20:46 3,4 C 94 % 1005,8 hPa 0,0 l/m 3,6 km/h (1 Bft) S-SO 157 2,5 C 3,4 C
16.12.2012 20:51 3,4 C 94 % 1005,9 hPa 0,0 l/m 9,7 km/h (2 Bft) S-SO 157 2,5 C 0,8 C
16.12.2012 20:56 3,4 C 94 % 1005,9 hPa 0,0 l/m 3,2 km/h (1 Bft) S-SO 157 2,5 C 3,4 C
16.12.2012 21:01 3,4 C 94 % 1005,8 hPa 0,0 l/m 5,0 km/h (1 Bft) S-SO 157 2,5 C 2,3 C
16.12.2012 21:06 3,5 C 94 % 1005,7 hPa 0,0 l/m 1,8 km/h (1 Bft) S-SO 157 2,6 C 3,5 C
16.12.2012 21:11 3,6 C 94 % 1005,8 hPa 0,5 l/m 4,0 km/h (1 Bft) S-SO 157 2,7 C 3,6 C
16.12.2012 21:16 3,6 C 94 % 1005,8 hPa 0,0 l/m 3,2 km/h (1 Bft) S-SO 157 2,7 C 3,6 C
16.12.2012 21:21 3,6 C 94 % 1005,7 hPa 0,0 l/m 3,2 km/h (1 Bft) S 180 2,7 C 3,6 C
16.12.2012 21:26 3,7 C 94 % 1005,7 hPa 0,0 l/m 4,0 km/h (1 Bft) SO 135 2,8 C 3,7 C
16.12.2012 21:31 3,8 C 94 % 1005,8 hPa 0,0 l/m 6,1 km/h (2 Bft) SO 135 2,9 C 2,3 C
16.12.2012 21:36 3,8 C 94 % 1005,9 hPa 0,0 l/m 4,0 km/h (1 Bft) S-SW 202 2,9 C 3,8 C
16.12.2012 21:41 3,8 C 94 % 1005,9 hPa 0,0 l/m 4,7 km/h (1 Bft) SO 135 2,9 C 2,8 C
16.12.2012 21:46 3,8 C 94 % 1005,8 hPa 0,0 l/m 0,0 km/h (0 Bft) S-SO 157 2,9 C 3,8 C
16.12.2012 21:51 3,8 C 94 % 1005,8 hPa 0,0 l/m 3,2 km/h (1 Bft) S-SO 157 2,9 C 3,8 C
16.12.2012 21:56 3,8 C 94 % 1005,8 hPa 0,0 l/m 3,2 km/h (1 Bft) S-SO 157 2,9 C 3,8 C
16.12.2012 22:01 3,8 C 94 % 1005,8 hPa 0,0 l/m 0,0 km/h (0 Bft) S 180 2,9 C 3,8 C
16.12.2012 22:06 3,8 C 94 % 1005,8 hPa 0,0 l/m 4,7 km/h (1 Bft) S 180 2,9 C 2,8 C
16.12.2012 22:11 3,8 C 94 % 1006,0 hPa 0,0 l/m 4,7 km/h (1 Bft) S-SW 202 2,9 C 2,8 C
16.12.2012 22:16 3,8 C 94 % 1005,8 hPa 0,0 l/m 0,0 km/h (0 Bft) S 180 2,9 C 3,8 C
16.12.2012 22:21 3,8 C 94 % 1005,9 hPa 0,0 l/m 0,0 km/h (0 Bft) S 180 2,9 C 3,8 C
16.12.2012 22:26 3,7 C 94 % 1006,0 hPa 0,0 l/m 2,5 km/h (1 Bft) S 180 2,8 C 3,7 C
16.12.2012 22:31 3,6 C 94 % 1006,0 hPa 0,0 l/m 3,6 km/h (1 Bft) S-SW 202 2,7 C 3,6 C
16.12.2012 22:36 3,6 C 94 % 1005,8 hPa 0,0 l/m 2,5 km/h (1 Bft) S-SO 157 2,7 C 3,6 C
16.12.2012 22:41 3,6 C 94 % 1006,0 hPa 0,0 l/m 3,6 km/h (1 Bft) SW 225 2,7 C 3,6 C
16.12.2012 22:46 3,6 C 94 % 1005,9 hPa 0,0 l/m 8,6 km/h (2 Bft) SW 225 2,7 C 1,3 C
16.12.2012 22:51 3,8 C 94 % 1006,0 hPa 0,0 l/m 8,6 km/h (2 Bft) S 180 2,9 C 1,6 C
16.12.2012 22:56 3,8 C 94 % 1006,0 hPa 0,5 l/m 0,0 km/h (0 Bft) S 180 2,9 C 3,8 C
16.12.2012 23:01 3,6 C 94 % 1006,0 hPa 0,0 l/m 3,2 km/h (1 Bft) S-SW 202 2,7 C 3,6 C
16.12.2012 23:06 3,6 C 94 % 1005,9 hPa 0,0 l/m 1,8 km/h (1 Bft) S-SO 157 2,7 C 3,6 C
16.12.2012 23:11 3,6 C 94 % 1005,9 hPa 0,0 l/m 2,9 km/h (1 Bft) S-SO 157 2,7 C 3,6 C
16.12.2012 23:16 3,6 C 94 % 1005,9 hPa 0,0 l/m 4,0 km/h (1 Bft) SO 135 2,7 C 3,6 C
16.12.2012 23:21 3,6 C 94 % 1005,9 hPa 0,0 l/m 5,8 km/h (2 Bft) SW 225 2,7 C 2,2 C
16.12.2012 23:26 3,6 C 94 % 1006,0 hPa 0,0 l/m 2,2 km/h (1 Bft) SW 225 2,7 C 3,6 C
16.12.2012 23:31 3,5 C 94 % 1005,8 hPa 0,0 l/m 4,7 km/h (1 Bft) S-SW 202 2,6 C 2,5 C
16.12.2012 23:36 3,5 C 94 % 1005,9 hPa 0,0 l/m 0,0 km/h (0 Bft) S 180 2,6 C 3,5 C
16.12.2012 23:41 3,5 C 94 % 1005,9 hPa 0,0 l/m 0,0 km/h (0 Bft) S 180 2,6 C 3,5 C
16.12.2012 23:46 3,5 C 94 % 1006,0 hPa 0,0 l/m 2,2 km/h (1 Bft) S-SO 157 2,6 C 3,5 C
16.12.2012 23:51 3,5 C 94 % 1006,0 hPa 0,0 l/m 2,2 km/h (1 Bft) S-SO 157 2,6 C 3,5 C
16.12.2012 23:56 3,4 C 94 % 1006,0 hPa 0,0 l/m 2,2 km/h (1 Bft) S 180 2,5 C 3,4 C
_ Min-Zeit 07:36 15:26 05:51 - 00:41 - - 07:36 08:26
Minimum _ 2,6 C 93 % 1004,6 hPa - 0,0 km/h (0 Bft) - - 1,7 C -0,3 C
_ Max-Zeit 14:16 00:01 20:01 11:21 08:26 - - 14:16 14:21
Maximum _ 4,1 C 94 % 1006,2 hPa 0,5 l/m 10,8 km/h
S-SW (2 Bft)
- - 3,2 C 4,1 C
Durchschnitt _ 3,3 C 94 % 1005,5 hPa #2,1 l/m 4,2 km/h (1 Bft) S-SW - 2,4 C 2,6 C
(c) by David Heller